createdAt,value
2019-05-19T00:01:08.699Z,10.94
2019-05-19T00:03:40.489Z,10.93
2019-05-19T00:06:14.175Z,10.91
2019-05-19T00:08:45.893Z,10.84
2019-05-19T00:11:23.189Z,10.77
2019-05-19T00:13:56.453Z,10.67
2019-05-19T00:16:29.074Z,10.69
2019-05-19T00:19:02.314Z,10.77
2019-05-19T00:21:34.504Z,10.71
2019-05-19T00:24:06.242Z,10.60
2019-05-19T00:26:40.557Z,10.42
2019-05-19T00:29:13.266Z,10.33
2019-05-19T00:31:45.185Z,10.42
2019-05-19T00:34:16.910Z,10.36
2019-05-19T00:36:48.694Z,10.20
2019-05-19T00:39:20.585Z,10.30
2019-05-19T00:41:52.334Z,10.33
2019-05-19T00:44:25.687Z,10.43
2019-05-19T00:46:57.511Z,10.30
2019-05-19T00:49:40.614Z,10.25
2019-05-19T00:52:03.255Z,10.15
2019-05-19T00:54:35.526Z,10.15
2019-05-19T00:57:07.488Z,10.07
2019-05-19T00:59:39.246Z,10.15
2019-05-19T01:02:11.000Z,10.14
2019-05-19T01:04:42.717Z,10.20
2019-05-19T01:07:14.476Z,10.01
2019-05-19T01:09:46.228Z,9.72
2019-05-19T01:12:20.625Z,9.58
2019-05-19T01:14:54.040Z,9.39
2019-05-19T01:17:25.875Z,9.52
2019-05-19T01:19:57.584Z,9.43
2019-05-19T01:22:29.670Z,9.57
2019-05-19T01:25:02.145Z,9.55
2019-05-19T01:27:33.852Z,9.43
2019-05-19T01:30:06.136Z,9.29
2019-05-19T01:32:37.864Z,9.36
2019-05-19T01:35:09.574Z,9.36
2019-05-19T01:37:43.064Z,9.49
2019-05-19T01:40:16.315Z,9.51
2019-05-19T01:42:48.007Z,9.38
2019-05-19T01:45:19.751Z,9.44
2019-05-19T01:47:51.448Z,9.31
2019-05-19T01:50:24.735Z,9.23
2019-05-19T01:52:56.452Z,9.25
2019-05-19T01:55:28.435Z,9.15
2019-05-19T01:58:00.202Z,9.12
2019-05-19T02:00:32.880Z,9.14
2019-05-19T02:03:05.642Z,8.96
2019-05-19T02:05:37.390Z,8.90
2019-05-19T02:08:09.249Z,8.80
2019-05-19T02:10:41.027Z,8.72
2019-05-19T02:13:13.741Z,8.65
2019-05-19T02:15:47.391Z,8.76
2019-05-19T02:18:19.086Z,8.77
2019-05-19T02:20:50.881Z,8.75
2019-05-19T02:23:23.047Z,8.81
2019-05-19T02:25:56.448Z,8.86
2019-05-19T02:28:28.124Z,8.94
2019-05-19T02:30:59.907Z,8.83
2019-05-19T02:33:35.672Z,8.71
2019-05-19T02:36:05.988Z,8.62
2019-05-19T02:38:38.760Z,8.58
2019-05-19T02:41:10.562Z,8.57
2019-05-19T02:43:43.426Z,8.45
2019-05-19T02:46:15.152Z,8.34
2019-05-19T02:48:46.885Z,8.28
2019-05-19T02:51:18.657Z,8.31
2019-05-19T02:53:50.604Z,8.34
2019-05-19T02:56:24.203Z,8.38
2019-05-19T02:58:55.912Z,8.38
2019-05-19T03:01:28.094Z,8.38
2019-05-19T03:03:59.824Z,8.38
2019-05-19T03:06:32.583Z,8.38
2019-05-19T03:09:05.930Z,8.45
2019-05-19T03:11:37.687Z,8.30
2019-05-19T03:14:11.226Z,8.26
2019-05-19T03:16:44.460Z,8.17
2019-05-19T03:19:16.580Z,8.02
2019-05-19T03:21:48.299Z,8.00
2019-05-19T03:24:20.278Z,7.91
2019-05-19T03:26:51.990Z,7.82
2019-05-19T03:29:28.380Z,7.71
2019-05-19T03:32:12.425Z,7.69
2019-05-19T03:34:43.582Z,7.63
2019-05-19T03:37:15.652Z,7.64
2019-05-19T03:39:49.334Z,7.58
2019-05-19T03:42:21.071Z,7.71
2019-05-19T03:44:52.872Z,7.75
2019-05-19T03:47:24.622Z,7.70
2019-05-19T03:49:56.331Z,7.76
2019-05-19T03:52:28.072Z,7.75
2019-05-19T03:55:00.214Z,7.71
2019-05-19T03:57:32.875Z,7.49
2019-05-19T04:00:05.963Z,7.52
2019-05-19T04:02:38.093Z,7.54
2019-05-19T04:05:09.806Z,7.55
2019-05-19T04:07:41.544Z,7.45
2019-05-19T04:10:13.247Z,7.34
2019-05-19T04:12:46.567Z,7.37
2019-05-19T04:15:18.371Z,7.33
2019-05-19T04:17:50.090Z,7.32
2019-05-19T04:20:21.788Z,7.28
2019-05-19T04:22:53.874Z,7.28
2019-05-19T04:25:26.896Z,7.33
2019-05-19T04:27:58.621Z,7.30
2019-05-19T04:30:30.317Z,7.23
2019-05-19T04:33:02.029Z,7.13
2019-05-19T04:35:33.780Z,7.12
2019-05-19T04:38:05.624Z,7.15
2019-05-19T04:40:37.346Z,7.17
2019-05-19T04:43:09.057Z,7.05
2019-05-19T04:45:42.642Z,6.92
2019-05-19T04:48:14.472Z,6.93
2019-05-19T04:50:46.221Z,6.95
2019-05-19T04:53:17.937Z,6.94
2019-05-19T04:55:49.739Z,7.04
2019-05-19T04:58:21.511Z,6.98
2019-05-19T05:00:53.225Z,6.89
2019-05-19T05:03:24.929Z,6.94
2019-05-19T05:05:56.721Z,6.99
2019-05-19T05:08:30.582Z,7.14
2019-05-19T05:11:02.014Z,7.11
2019-05-19T05:13:33.687Z,7.25
2019-05-19T05:16:05.417Z,7.30
2019-05-19T05:18:37.162Z,7.20
2019-05-19T05:21:09.099Z,7.12
2019-05-19T05:23:40.832Z,6.96
2019-05-19T05:26:13.000Z,7.05
2019-05-19T05:28:44.717Z,7.02
2019-05-19T05:31:16.845Z,6.94
2019-05-19T05:33:48.806Z,7.00
2019-05-19T05:36:20.608Z,6.98
2019-05-19T05:38:55.259Z,6.94
2019-05-19T05:41:27.012Z,6.99
2019-05-19T05:43:59.101Z,6.97
2019-05-19T05:46:30.915Z,7.00
2019-05-19T05:49:03.272Z,7.09
2019-05-19T05:51:38.247Z,7.23
2019-05-19T05:54:10.022Z,7.29
2019-05-19T05:56:41.831Z,7.47
2019-05-19T05:59:13.538Z,8.40
2019-05-19T06:01:45.278Z,9.81
2019-05-19T06:04:17.010Z,10.99
2019-05-19T06:06:48.796Z,11.32
2019-05-19T06:09:20.606Z,11.71
2019-05-19T06:11:52.362Z,12.03
2019-05-19T06:14:24.127Z,12.99
2019-05-19T06:16:55.863Z,13.60
2019-05-19T06:19:27.792Z,13.96
2019-05-19T06:21:59.504Z,14.08
2019-05-19T06:24:31.261Z,14.24
2019-05-19T06:27:07.376Z,14.78
2019-05-19T06:29:42.533Z,14.75
2019-05-19T06:32:31.515Z,15.42
2019-05-19T06:35:03.313Z,15.90
2019-05-19T06:37:35.252Z,15.97
2019-05-19T06:40:07.025Z,16.37
2019-05-19T06:42:39.269Z,16.55
2019-05-19T06:45:10.996Z,16.93
2019-05-19T06:47:45.453Z,16.82
2019-05-19T06:50:17.302Z,17.58
2019-05-19T06:52:49.020Z,18.16
2019-05-19T06:55:21.538Z,18.03
2019-05-19T06:57:53.283Z,18.36
2019-05-19T07:00:25.051Z,18.69
2019-05-19T07:02:58.463Z,19.35
2019-05-19T07:05:30.270Z,19.88
2019-05-19T07:08:01.995Z,19.93
2019-05-19T07:10:33.760Z,20.57
2019-05-19T07:13:06.493Z,20.74
2019-05-19T07:15:38.365Z,20.56
2019-05-19T07:18:10.083Z,20.98
2019-05-19T07:20:41.821Z,21.27
2019-05-19T07:23:27.319Z,21.29
2019-05-19T07:25:49.302Z,21.07
2019-05-19T07:28:21.172Z,21.53
2019-05-19T07:30:52.937Z,21.41
2019-05-19T07:33:24.661Z,21.64
2019-05-19T07:35:57.466Z,21.38
2019-05-19T07:38:29.474Z,21.76
2019-05-19T07:41:03.261Z,20.90
2019-05-19T07:43:35.057Z,21.96
2019-05-19T07:46:06.854Z,22.07
2019-05-19T07:48:39.022Z,22.39
2019-05-19T07:51:12.298Z,22.24
2019-05-19T07:53:44.168Z,23.74
2019-05-19T07:56:19.295Z,23.69
2019-05-19T07:58:54.479Z,24.35
2019-05-19T08:01:26.271Z,24.24
2019-05-19T08:03:57.991Z,24.46
2019-05-19T08:06:29.714Z,23.78
2019-05-19T08:09:02.007Z,24.27
2019-05-19T08:11:35.010Z,22.69
2019-05-19T08:14:07.683Z,22.26
2019-05-19T08:16:39.595Z,23.95
2019-05-19T08:19:15.089Z,24.91
2019-05-19T08:21:47.275Z,24.65
2019-05-19T08:24:20.912Z,24.69
2019-05-19T08:26:52.982Z,25.48
2019-05-19T08:29:25.828Z,25.11
2019-05-19T08:32:08.168Z,25.63
2019-05-19T08:34:50.912Z,24.31
2019-05-19T08:37:25.666Z,25.46
2019-05-19T08:40:04.526Z,26.26
2019-05-19T08:42:38.160Z,26.00
2019-05-19T08:45:09.968Z,23.86
2019-05-19T08:47:42.070Z,19.39
2019-05-19T08:50:13.953Z,23.73
2019-05-19T08:52:46.122Z,24.69
2019-05-19T08:55:17.821Z,24.91
2019-05-19T08:57:49.648Z,22.58
2019-05-19T09:00:21.376Z,23.45
2019-05-19T09:02:53.129Z,22.39
2019-05-19T09:05:24.858Z,24.24
2019-05-19T09:07:56.589Z,25.16
2019-05-19T09:10:28.387Z,26.34
2019-05-19T09:13:00.125Z,26.93
2019-05-19T09:15:34.300Z,27.54
2019-05-19T09:18:07.606Z,27.45
2019-05-19T09:20:39.675Z,23.39
2019-05-19T09:23:11.455Z,23.52
2019-05-19T09:25:43.196Z,23.39
2019-05-19T09:28:15.050Z,25.45
2019-05-19T09:30:46.884Z,26.90
2019-05-19T09:33:18.852Z,26.84
2019-05-19T09:35:50.944Z,25.21
2019-05-19T09:38:22.724Z,26.89
2019-05-19T09:54:44.040Z,21.78
2019-05-19T09:57:07.735Z,22.39
2019-05-19T09:59:39.576Z,24.85
2019-05-19T10:02:11.298Z,25.89
2019-05-19T10:04:43.505Z,25.75
2019-05-19T10:07:15.357Z,21.73
2019-05-19T10:10:04.446Z,24.55
2019-05-19T10:12:36.159Z,23.31
2019-05-19T10:15:08.115Z,24.88
2019-05-19T10:17:39.894Z,24.10
2019-05-19T10:22:56.883Z,23.31
2019-05-19T10:25:30.224Z,21.27
2019-05-19T10:28:02.144Z,23.13
2019-05-19T10:30:34.048Z,21.65
2019-05-19T10:33:07.549Z,22.76
2019-05-19T10:35:42.513Z,22.00
2019-05-19T10:38:17.587Z,25.39
2019-05-19T10:40:48.571Z,26.52
2019-05-19T10:43:22.392Z,25.68
2019-05-19T10:46:05.771Z,25.06
2019-05-19T10:48:36.983Z,27.08
2019-05-19T10:51:09.161Z,24.48
2019-05-19T10:53:42.004Z,24.39
2019-05-19T10:56:13.686Z,25.28
2019-05-19T10:58:45.380Z,27.20
2019-05-19T11:01:17.072Z,25.98
2019-05-19T11:03:50.408Z,25.90
2019-05-19T11:06:23.911Z,27.87
2019-05-19T11:08:56.605Z,26.99
2019-05-19T11:11:28.740Z,23.53
2019-05-19T11:14:00.849Z,22.69
2019-05-19T11:16:33.795Z,23.41
2019-05-19T11:19:06.834Z,24.70
2019-05-19T11:21:38.651Z,25.47
2019-05-19T11:24:10.383Z,26.55
2019-05-19T11:26:42.710Z,25.83
2019-05-19T11:29:14.778Z,24.63
2019-05-19T11:31:46.790Z,23.58
2019-05-19T11:34:18.902Z,24.59
2019-05-19T11:36:51.293Z,23.53
2019-05-19T11:39:23.340Z,24.01
2019-05-19T11:41:55.390Z,23.45
2019-05-19T11:44:31.393Z,22.98
2019-05-19T11:47:04.584Z,22.11
2019-05-19T11:49:36.649Z,22.08
2019-05-19T11:52:09.097Z,21.87
2019-05-19T11:54:41.217Z,21.82
2019-05-19T11:57:12.913Z,21.86
2019-05-19T11:59:44.731Z,22.50
2019-05-19T12:02:16.428Z,22.69
2019-05-19T12:04:48.152Z,22.95
2019-05-19T12:07:19.894Z,22.94
2019-05-19T12:09:53.219Z,23.10
2019-05-19T12:12:25.053Z,23.20
2019-05-19T12:14:58.453Z,22.78
2019-05-19T12:17:31.369Z,22.71
2019-05-19T12:20:03.178Z,22.51
2019-05-19T12:22:34.885Z,22.88
2019-05-19T12:25:08.055Z,22.74
2019-05-19T12:27:39.845Z,22.34
2019-05-19T12:30:17.657Z,22.52
2019-05-19T12:32:49.664Z,22.31
2019-05-19T12:35:24.796Z,22.11
2019-05-19T12:37:56.591Z,22.87
2019-05-19T12:40:28.322Z,22.09
2019-05-19T12:43:00.476Z,22.25
2019-05-19T12:45:32.940Z,22.74
2019-05-19T12:48:06.636Z,22.32
2019-05-19T12:50:38.342Z,22.86
2019-05-19T12:53:10.078Z,22.41
2019-05-19T12:55:41.847Z,22.35
2019-05-19T12:58:13.621Z,23.14
2019-05-19T13:00:46.309Z,22.93
2019-05-19T13:03:19.686Z,23.11
2019-05-19T13:05:54.254Z,22.70
2019-05-19T13:08:26.099Z,22.29
2019-05-19T13:10:57.796Z,22.94
2019-05-19T13:13:29.669Z,23.05
2019-05-19T13:16:04.701Z,23.29
2019-05-19T13:18:36.390Z,22.31
2019-05-19T13:21:08.169Z,22.60
2019-05-19T13:23:40.016Z,22.70
2019-05-19T13:26:11.827Z,22.25
2019-05-19T13:28:43.627Z,21.73
2019-05-19T13:31:15.374Z,21.13
2019-05-19T13:33:49.909Z,20.75
2019-05-19T13:36:21.656Z,21.55
2019-05-19T13:38:55.003Z,21.12
2019-05-19T13:41:26.825Z,21.45
2019-05-19T13:43:59.703Z,21.21
2019-05-19T13:46:33.636Z,21.64
2019-05-19T13:49:07.027Z,20.96
2019-05-19T13:51:38.820Z,20.85
2019-05-19T13:54:10.780Z,20.61
2019-05-19T13:56:42.790Z,20.77
2019-05-19T13:59:14.543Z,20.87
2019-05-19T14:01:46.292Z,21.18
2019-05-19T14:04:18.178Z,21.21
2019-05-19T14:06:50.958Z,21.11
2019-05-19T14:09:22.734Z,21.37
2019-05-19T14:11:54.724Z,21.61
2019-05-19T14:14:26.509Z,21.62
2019-05-19T14:16:58.271Z,21.18
2019-05-19T14:19:30.092Z,21.20
2019-05-19T14:22:03.938Z,20.88
2019-05-19T14:24:35.694Z,20.58
2019-05-19T14:27:07.464Z,20.38
2019-05-19T14:43:11.418Z,21.71
2019-05-19T14:45:44.775Z,21.15
2019-05-19T14:48:16.585Z,21.29
2019-05-19T14:50:48.590Z,21.19
2019-05-19T14:53:20.312Z,21.32
2019-05-19T14:55:52.054Z,20.35
2019-05-19T14:58:24.293Z,20.87
2019-05-19T15:00:56.351Z,21.10
2019-05-19T15:03:28.206Z,20.50
2019-05-19T15:06:00.454Z,20.52
2019-05-19T15:08:32.947Z,20.45
2019-05-19T15:11:04.690Z,20.72
2019-05-19T15:13:36.461Z,20.82
2019-05-19T15:16:08.654Z,20.65
2019-05-19T15:18:40.443Z,20.48
2019-05-19T15:21:12.225Z,20.58
2019-05-19T15:23:44.155Z,20.31
2019-05-19T15:26:17.511Z,20.08
2019-05-19T15:28:49.352Z,20.00
2019-05-19T15:31:21.089Z,20.06
2019-05-19T15:33:52.815Z,19.99
2019-05-19T15:36:26.180Z,20.02
2019-05-19T15:38:57.953Z,20.24
2019-05-19T15:41:29.733Z,20.76
2019-05-19T15:44:01.501Z,20.63
2019-05-19T15:46:33.619Z,20.53
2019-05-19T15:49:06.238Z,20.72
2019-05-19T15:51:39.763Z,20.31
2019-05-19T15:54:11.542Z,20.61
2019-05-19T15:56:43.339Z,20.09
2019-05-19T15:59:15.099Z,19.96
2019-05-19T16:01:48.324Z,20.07
2019-05-19T16:04:20.323Z,20.61
2019-05-19T16:06:52.122Z,20.03
2019-05-19T16:09:23.961Z,19.78
2019-05-19T16:11:57.319Z,20.25
2019-05-19T16:14:29.210Z,20.04
2019-05-19T16:17:01.936Z,19.71
2019-05-19T16:19:33.763Z,19.41
2019-05-19T16:22:05.756Z,19.70
2019-05-19T16:24:38.128Z,19.67
2019-05-19T16:27:12.937Z,19.89
2019-05-19T16:29:48.199Z,19.79
2019-05-19T16:32:19.888Z,20.12
2019-05-19T16:34:51.851Z,19.97
2019-05-19T16:37:23.620Z,19.57
2019-05-19T16:39:55.371Z,19.37
2019-05-19T16:42:28.054Z,19.24
2019-05-19T16:45:00.179Z,19.36
2019-05-19T16:47:35.860Z,19.09
2019-05-19T16:50:08.193Z,19.43
2019-05-19T16:52:39.935Z,19.50
2019-05-19T16:55:25.816Z,19.23
2019-05-19T16:57:57.518Z,19.43
2019-05-19T17:00:30.087Z,19.42
2019-05-19T17:03:03.437Z,19.65
2019-05-19T17:05:35.230Z,19.64
2019-05-19T17:08:11.236Z,19.23
2019-05-19T17:10:43.123Z,19.17
2019-05-19T17:13:14.943Z,18.94
2019-05-19T17:15:46.708Z,19.44
2019-05-19T17:18:18.529Z,19.35
2019-05-19T17:20:51.691Z,18.85
2019-05-19T17:23:23.648Z,18.78
2019-05-19T17:25:55.438Z,19.18
2019-05-19T17:28:27.183Z,19.05
2019-05-19T17:30:58.995Z,19.42
2019-05-19T17:33:30.999Z,19.50
2019-05-19T17:36:02.821Z,19.03
2019-05-19T17:38:34.612Z,18.47
2019-05-19T17:41:08.070Z,18.18
2019-05-19T17:43:39.969Z,18.56
2019-05-19T17:46:12.055Z,18.73
2019-05-19T17:48:43.844Z,18.36
2019-05-19T17:51:15.627Z,18.18
2019-05-19T17:53:47.403Z,18.00
2019-05-19T17:56:19.362Z,17.91
2019-05-19T17:58:52.863Z,18.19
2019-05-19T18:01:24.718Z,18.16
2019-05-19T18:03:59.835Z,17.97
2019-05-19T18:06:33.324Z,17.85
2019-05-19T18:09:06.863Z,18.25
2019-05-19T18:11:38.739Z,18.18
2019-05-19T18:14:10.838Z,18.17
2019-05-19T18:16:42.822Z,18.08
2019-05-19T18:19:14.937Z,18.22
2019-05-19T18:21:46.955Z,18.12
2019-05-19T18:24:19.802Z,17.93
2019-05-19T18:26:52.286Z,17.84
2019-05-19T18:29:31.501Z,17.99
2019-05-19T18:31:58.293Z,18.17
2019-05-19T18:34:32.150Z,17.76
2019-05-19T18:37:04.109Z,17.64
2019-05-19T18:39:38.979Z,17.49
2019-05-19T18:42:10.835Z,17.91
2019-05-19T18:44:42.781Z,17.58
2019-05-19T18:47:16.559Z,17.75
2019-05-19T18:49:48.418Z,17.42
2019-05-19T18:52:20.183Z,17.28
2019-05-19T18:54:52.102Z,17.24
2019-05-19T18:57:23.941Z,17.30
2019-05-19T18:59:55.951Z,17.44
2019-05-19T19:02:28.145Z,17.19
2019-05-19T19:04:59.938Z,16.67
2019-05-19T19:07:53.118Z,16.79
2019-05-19T19:10:25.037Z,16.80
2019-05-19T19:12:57.156Z,16.33
2019-05-19T19:15:28.944Z,16.52
2019-05-19T19:18:02.288Z,16.48
2019-05-19T19:20:34.469Z,16.44
2019-05-19T19:23:06.783Z,16.39
2019-05-19T19:25:38.747Z,16.35
2019-05-19T19:28:10.485Z,16.17
2019-05-19T19:30:42.516Z,16.08
2019-05-19T19:33:14.262Z,15.99
2019-05-19T19:35:46.034Z,16.01
2019-05-19T19:38:17.784Z,15.92
2019-05-19T19:40:54.108Z,15.83
2019-05-19T19:43:26.278Z,15.68
2019-05-19T19:45:59.638Z,15.64
2019-05-19T19:48:32.442Z,15.50
2019-05-19T19:51:06.095Z,15.42
2019-05-19T19:53:37.796Z,15.40
2019-05-19T19:56:09.529Z,15.35
2019-05-19T19:58:41.267Z,15.33
2019-05-19T20:01:12.991Z,15.23
2019-05-19T20:03:44.945Z,15.25
2019-05-19T20:06:17.374Z,15.15
2019-05-19T20:08:49.167Z,15.03
2019-05-19T20:11:20.905Z,14.87
2019-05-19T20:13:52.801Z,14.88
2019-05-19T20:16:25.019Z,14.76
2019-05-19T20:18:56.746Z,14.75
2019-05-19T20:21:28.545Z,14.65
2019-05-19T20:24:02.999Z,14.63
2019-05-19T20:26:36.366Z,14.57
2019-05-19T20:29:08.367Z,14.49
2019-05-19T20:31:40.149Z,14.51
2019-05-19T20:34:12.022Z,14.51
2019-05-19T20:36:43.882Z,14.41
2019-05-19T20:39:16.425Z,14.35
2019-05-19T20:41:48.296Z,14.33
2019-05-19T20:44:20.034Z,14.20
2019-05-19T20:46:51.932Z,14.17
2019-05-19T20:49:25.340Z,14.14
2019-05-19T20:51:57.283Z,14.15
2019-05-19T20:54:31.092Z,14.00
2019-05-19T20:57:03.227Z,14.10
2019-05-19T20:59:36.054Z,13.94
2019-05-19T21:02:07.787Z,13.82
2019-05-19T21:04:39.700Z,13.63
2019-05-19T21:07:11.489Z,13.51
2019-05-19T21:09:43.280Z,13.39
2019-05-19T21:12:16.101Z,13.36
2019-05-19T21:14:47.978Z,13.42
2019-05-19T21:17:20.212Z,13.48
2019-05-19T21:19:55.306Z,13.42
2019-05-19T21:22:27.178Z,13.20
2019-05-19T21:24:58.955Z,13.09
2019-05-19T21:27:30.703Z,13.05
2019-05-19T21:30:02.586Z,13.10
2019-05-19T21:32:36.535Z,13.07
2019-05-19T21:35:08.372Z,12.94
2019-05-19T21:37:45.193Z,12.90
2019-05-19T21:40:17.919Z,12.87
2019-05-19T21:42:53.645Z,12.77
2019-05-19T21:45:25.743Z,12.78
2019-05-19T21:47:57.706Z,12.66
2019-05-19T21:50:29.556Z,12.66
2019-05-19T21:53:06.397Z,12.60
2019-05-19T21:55:36.832Z,12.65
2019-05-19T21:58:09.556Z,12.58
2019-05-19T22:00:43.265Z,12.51
2019-05-19T22:03:15.169Z,12.51
2019-05-19T22:05:53.193Z,12.46
2019-05-19T22:08:22.498Z,12.35
2019-05-19T22:10:54.362Z,12.41
2019-05-19T22:13:27.790Z,12.36
2019-05-19T22:16:12.479Z,12.33
2019-05-19T22:18:35.671Z,12.32
2019-05-19T22:21:07.868Z,12.13
2019-05-19T22:23:39.774Z,12.06
2019-05-19T22:26:11.631Z,12.06
2019-05-19T22:28:43.817Z,12.07
2019-05-19T22:31:15.747Z,12.10
2019-05-19T22:33:47.637Z,11.94
2019-05-19T22:36:19.550Z,11.93
2019-05-19T22:38:51.393Z,11.92
2019-05-19T22:41:23.265Z,11.88
2019-05-19T22:43:55.149Z,11.81
2019-05-19T22:46:27.291Z,11.79
2019-05-19T22:48:59.244Z,11.79
2019-05-19T22:51:32.724Z,11.88
2019-05-19T22:54:06.743Z,11.84
2019-05-19T22:56:38.662Z,11.80
2019-05-19T22:59:19.249Z,11.70
2019-05-19T23:01:51.819Z,11.59
2019-05-19T23:04:17.987Z,11.54
2019-05-19T23:06:49.598Z,11.51
2019-05-19T23:09:21.764Z,11.57
2019-05-19T23:11:53.605Z,11.64
2019-05-19T23:14:27.998Z,11.64
2019-05-19T23:17:00.478Z,11.60
2019-05-19T23:19:32.721Z,11.33
2019-05-19T23:22:04.523Z,11.19
2019-05-19T23:24:38.163Z,11.21
2019-05-19T23:27:09.946Z,11.26
2019-05-19T23:29:41.774Z,11.28
2019-05-19T23:32:15.266Z,11.26
2019-05-19T23:34:47.313Z,11.19
2019-05-19T23:37:19.159Z,11.18
2019-05-19T23:39:54.240Z,11.19
2019-05-19T23:42:26.221Z,11.13
2019-05-19T23:44:58.133Z,11.10
2019-05-19T23:47:29.873Z,11.07
2019-05-19T23:50:01.695Z,10.59
2019-05-19T23:52:33.522Z,10.59
2019-05-19T23:55:07.255Z,10.57
2019-05-19T23:57:40.109Z,10.73
